sensor_id;sensor_type;location;lat;lon;timestamp;temperature;humidity
59208;DHT22;44977;53.132;6.408;2022-07-15T00:01:39;14.10;99.90
59208;DHT22;44977;53.132;6.408;2022-07-15T00:06:40;14.20;99.90
59208;DHT22;44977;53.132;6.408;2022-07-15T00:11:41;14.20;99.90
59208;DHT22;44977;53.132;6.408;2022-07-15T00:16:41;14.30;99.90
59208;DHT22;44977;53.132;6.408;2022-07-15T00:21:42;14.30;99.90
59208;DHT22;44977;53.132;6.408;2022-07-15T00:26:42;14.30;99.90
59208;DHT22;44977;53.132;6.408;2022-07-15T00:31:43;14.40;99.90
59208;DHT22;44977;53.132;6.408;2022-07-15T00:36:44;14.40;99.90
59208;DHT22;44977;53.132;6.408;2022-07-15T00:41:45;14.40;99.90
59208;DHT22;44977;53.132;6.408;2022-07-15T00:46:45;14.50;99.90
59208;DHT22;44977;53.132;6.408;2022-07-15T00:51:50;14.40;99.90
59208;DHT22;44977;53.132;6.408;2022-07-15T00:56:54;14.40;99.90
59208;DHT22;44977;53.132;6.408;2022-07-15T01:01:56;14.40;99.90
59208;DHT22;44977;53.132;6.408;2022-07-15T01:06:57;14.30;99.90
59208;DHT22;44977;53.132;6.408;2022-07-15T01:11:58;14.30;99.90
59208;DHT22;44977;53.132;6.408;2022-07-15T01:16:58;14.20;99.90
59208;DHT22;44977;53.132;6.408;2022-07-15T01:21:59;14.20;99.90
59208;DHT22;44977;53.132;6.408;2022-07-15T01:27:01;14.10;99.90
59208;DHT22;44977;53.132;6.408;2022-07-15T01:32:02;14.00;99.90
59208;DHT22;44977;53.132;6.408;2022-07-15T01:37:02;14.00;99.90
59208;DHT22;44977;53.132;6.408;2022-07-15T01:42:03;14.00;99.90
59208;DHT22;44977;53.132;6.408;2022-07-15T01:47:04;13.90;99.90
59208;DHT22;44977;53.132;6.408;2022-07-15T01:52:04;13.90;99.90
59208;DHT22;44977;53.132;6.408;2022-07-15T01:57:05;13.80;99.90
59208;DHT22;44977;53.132;6.408;2022-07-15T02:02:06;13.80;99.90
59208;DHT22;44977;53.132;6.408;2022-07-15T02:07:07;13.80;99.90
59208;DHT22;44977;53.132;6.408;2022-07-15T02:12:07;13.80;99.90
59208;DHT22;44977;53.132;6.408;2022-07-15T02:17:08;13.80;99.90
59208;DHT22;44977;53.132;6.408;2022-07-15T02:22:09;13.70;99.90
59208;DHT22;44977;53.132;6.408;2022-07-15T02:27:09;13.60;99.90
59208;DHT22;44977;53.132;6.408;2022-07-15T02:32:10;13.50;99.90
59208;DHT22;44977;53.132;6.408;2022-07-15T02:37:11;13.50;99.90
59208;DHT22;44977;53.132;6.408;2022-07-15T02:42:11;13.40;99.90
59208;DHT22;44977;53.132;6.408;2022-07-15T02:47:12;13.40;99.90
59208;DHT22;44977;53.132;6.408;2022-07-15T02:52:13;13.30;99.90
59208;DHT22;44977;53.132;6.408;2022-07-15T02:57:13;13.30;99.90
59208;DHT22;44977;53.132;6.408;2022-07-15T03:02:14;13.30;99.90
59208;DHT22;44977;53.132;6.408;2022-07-15T03:07:15;13.20;99.90
59208;DHT22;44977;53.132;6.408;2022-07-15T03:12:15;13.30;99.90
59208;DHT22;44977;53.132;6.408;2022-07-15T03:17:16;13.20;99.90
59208;DHT22;44977;53.132;6.408;2022-07-15T03:22:17;13.20;99.90
59208;DHT22;44977;53.132;6.408;2022-07-15T03:27:18;13.20;99.90
59208;DHT22;44977;53.132;6.408;2022-07-15T03:32:18;13.20;99.90
59208;DHT22;44977;53.132;6.408;2022-07-15T03:37:20;13.10;99.90
59208;DHT22;44977;53.132;6.408;2022-07-15T03:42:21;13.10;99.90
59208;DHT22;44977;53.132;6.408;2022-07-15T03:47:22;13.10;99.90
59208;DHT22;44977;53.132;6.408;2022-07-15T03:52:23;13.00;99.90
59208;DHT22;44977;53.132;6.408;2022-07-15T03:57:23;13.00;99.90
59208;DHT22;44977;53.132;6.408;2022-07-15T04:02:25;13.00;99.90
59208;DHT22;44977;53.132;6.408;2022-07-15T04:07:26;13.00;99.90
59208;DHT22;44977;53.132;6.408;2022-07-15T04:12:26;13.00;99.90
59208;DHT22;44977;53.132;6.408;2022-07-15T04:17:27;13.00;99.90
59208;DHT22;44977;53.132;6.408;2022-07-15T04:22:28;13.00;99.90
59208;DHT22;44977;53.132;6.408;2022-07-15T04:27:28;13.10;99.90
59208;DHT22;44977;53.132;6.408;2022-07-15T04:32:29;13.10;99.90
59208;DHT22;44977;53.132;6.408;2022-07-15T04:37:30;13.20;99.90
59208;DHT22;44977;53.132;6.408;2022-07-15T04:42:30;13.20;99.90
59208;DHT22;44977;53.132;6.408;2022-07-15T04:47:31;13.30;99.90
59208;DHT22;44977;53.132;6.408;2022-07-15T04:52:32;13.30;99.90
59208;DHT22;44977;53.132;6.408;2022-07-15T04:57:32;13.40;99.90
59208;DHT22;44977;53.132;6.408;2022-07-15T05:02:33;13.40;99.90
59208;DHT22;44977;53.132;6.408;2022-07-15T05:07:34;13.50;99.90
59208;DHT22;44977;53.132;6.408;2022-07-15T05:12:35;13.40;99.90
59208;DHT22;44977;53.132;6.408;2022-07-15T05:17:36;13.50;99.90
59208;DHT22;44977;53.132;6.408;2022-07-15T05:22:36;13.50;99.90
59208;DHT22;44977;53.132;6.408;2022-07-15T05:27:37;13.60;99.90
59208;DHT22;44977;53.132;6.408;2022-07-15T05:32:38;13.60;99.90
59208;DHT22;44977;53.132;6.408;2022-07-15T05:37:39;13.70;99.90
59208;DHT22;44977;53.132;6.408;2022-07-15T05:42:40;13.80;99.90
59208;DHT22;44977;53.132;6.408;2022-07-15T05:47:49;13.80;99.90
59208;DHT22;44977;53.132;6.408;2022-07-15T05:52:50;13.90;99.90
59208;DHT22;44977;53.132;6.408;2022-07-15T05:57:51;14.00;99.90
59208;DHT22;44977;53.132;6.408;2022-07-15T06:02:52;14.00;99.90
59208;DHT22;44977;53.132;6.408;2022-07-15T06:07:53;14.20;99.90
59208;DHT22;44977;53.132;6.408;2022-07-15T06:12:54;14.30;99.90
59208;DHT22;44977;53.132;6.408;2022-07-15T06:17:54;14.40;99.90
59208;DHT22;44977;53.132;6.408;2022-07-15T06:22:55;14.50;99.90
59208;DHT22;44977;53.132;6.408;2022-07-15T06:27:56;14.70;99.90
59208;DHT22;44977;53.132;6.408;2022-07-15T06:32:56;14.80;99.90
59208;DHT22;44977;53.132;6.408;2022-07-15T06:37:58;15.00;99.90
59208;DHT22;44977;53.132;6.408;2022-07-15T06:42:59;15.20;99.90
59208;DHT22;44977;53.132;6.408;2022-07-15T06:47:59;15.50;99.90
59208;DHT22;44977;53.132;6.408;2022-07-15T06:53:00;15.90;99.90
59208;DHT22;44977;53.132;6.408;2022-07-15T06:58:02;16.10;99.90
59208;DHT22;44977;53.132;6.408;2022-07-15T07:03:04;16.50;99.90
59208;DHT22;44977;53.132;6.408;2022-07-15T07:08:04;16.70;99.90
59208;DHT22;44977;53.132;6.408;2022-07-15T07:13:05;16.90;99.90
59208;DHT22;44977;53.132;6.408;2022-07-15T07:18:06;17.20;99.90
59208;DHT22;44977;53.132;6.408;2022-07-15T07:23:07;17.30;99.90
59208;DHT22;44977;53.132;6.408;2022-07-15T07:28:07;17.30;99.90
59208;DHT22;44977;53.132;6.408;2022-07-15T07:33:08;17.60;99.90
59208;DHT22;44977;53.132;6.408;2022-07-15T07:38:09;17.80;99.90
59208;DHT22;44977;53.132;6.408;2022-07-15T07:43:10;18.20;99.90
59208;DHT22;44977;53.132;6.408;2022-07-15T07:48:11;18.40;99.90
59208;DHT22;44977;53.132;6.408;2022-07-15T07:53:12;18.40;99.90
59208;DHT22;44977;53.132;6.408;2022-07-15T07:58:13;18.30;99.90
59208;DHT22;44977;53.132;6.408;2022-07-15T08:03:16;18.40;99.90
59208;DHT22;44977;53.132;6.408;2022-07-15T08:08:18;18.70;99.90
59208;DHT22;44977;53.132;6.408;2022-07-15T08:13:23;18.70;99.90
59208;DHT22;44977;53.132;6.408;2022-07-15T08:18:24;19.00;99.90
59208;DHT22;44977;53.132;6.408;2022-07-15T08:23:26;19.10;99.90
59208;DHT22;44977;53.132;6.408;2022-07-15T08:28:26;19.20;99.90
59208;DHT22;44977;53.132;6.408;2022-07-15T08:33:27;19.00;99.90
59208;DHT22;44977;53.132;6.408;2022-07-15T08:38:28;18.90;99.90
59208;DHT22;44977;53.132;6.408;2022-07-15T08:43:30;19.20;99.90
59208;DHT22;44977;53.132;6.408;2022-07-15T08:48:35;19.60;99.90
59208;DHT22;44977;53.132;6.408;2022-07-15T08:53:37;19.80;99.90
59208;DHT22;44977;53.132;6.408;2022-07-15T08:58:39;19.90;99.90
59208;DHT22;44977;53.132;6.408;2022-07-15T09:03:41;19.90;99.90
59208;DHT22;44977;53.132;6.408;2022-07-15T09:08:41;19.80;98.30
59208;DHT22;44977;53.132;6.408;2022-07-15T09:13:42;19.70;99.90
59208;DHT22;44977;53.132;6.408;2022-07-15T09:18:44;19.60;99.90
59208;DHT22;44977;53.132;6.408;2022-07-15T09:23:45;19.60;99.90
59208;DHT22;44977;53.132;6.408;2022-07-15T09:28:45;19.50;99.90
59208;DHT22;44977;53.132;6.408;2022-07-15T09:33:50;19.40;99.90
59208;DHT22;44977;53.132;6.408;2022-07-15T09:44:05;19.20;99.90
59208;DHT22;44977;53.132;6.408;2022-07-15T09:49:07;19.20;99.90
59208;DHT22;44977;53.132;6.408;2022-07-15T09:54:07;19.20;99.90
59208;DHT22;44977;53.132;6.408;2022-07-15T09:59:09;19.30;99.90
59208;DHT22;44977;53.132;6.408;2022-07-15T10:04:10;19.40;99.90
59208;DHT22;44977;53.132;6.408;2022-07-15T10:09:11;19.50;99.90
59208;DHT22;44977;53.132;6.408;2022-07-15T10:19:35;19.90;99.90
59208;DHT22;44977;53.132;6.408;2022-07-15T10:30:06;19.80;99.90
59208;DHT22;44977;53.132;6.408;2022-07-15T10:35:36;19.70;99.90
59208;DHT22;44977;53.132;6.408;2022-07-15T10:56:41;20.30;99.90
59208;DHT22;44977;53.132;6.408;2022-07-15T11:01:44;20.40;96.90
59208;DHT22;44977;53.132;6.408;2022-07-15T11:12:06;20.60;94.00
59208;DHT22;44977;53.132;6.408;2022-07-15T11:17:07;20.80;94.40
59208;DHT22;44977;53.132;6.408;2022-07-15T11:22:08;20.90;96.00
59208;DHT22;44977;53.132;6.408;2022-07-15T11:27:09;21.00;92.80
59208;DHT22;44977;53.132;6.408;2022-07-15T11:32:11;20.90;94.60
59208;DHT22;44977;53.132;6.408;2022-07-15T11:37:13;20.90;96.70
59208;DHT22;44977;53.132;6.408;2022-07-15T11:42:23;21.10;93.20
59208;DHT22;44977;53.132;6.408;2022-07-15T11:47:53;21.20;93.60
59208;DHT22;44977;53.132;6.408;2022-07-15T11:53:00;21.50;93.20
59208;DHT22;44977;53.132;6.408;2022-07-15T11:58:00;21.60;85.10
59208;DHT22;44977;53.132;6.408;2022-07-15T12:03:08;21.70;92.50
59208;DHT22;44977;53.132;6.408;2022-07-15T12:08:09;21.70;90.50
59208;DHT22;44977;53.132;6.408;2022-07-15T12:13:09;21.80;91.20
59208;DHT22;44977;53.132;6.408;2022-07-15T12:18:10;21.70;93.10
59208;DHT22;44977;53.132;6.408;2022-07-15T12:23:11;21.60;92.90
59208;DHT22;44977;53.132;6.408;2022-07-15T12:28:12;21.50;94.10
59208;DHT22;44977;53.132;6.408;2022-07-15T12:33:36;21.20;94.60
59208;DHT22;44977;53.132;6.408;2022-07-15T12:38:36;21.20;96.00
59208;DHT22;44977;53.132;6.408;2022-07-15T12:43:49;21.10;97.20
59208;DHT22;44977;53.132;6.408;2022-07-15T12:48:49;21.00;99.70
59208;DHT22;44977;53.132;6.408;2022-07-15T12:53:50;20.90;98.70
59208;DHT22;44977;53.132;6.408;2022-07-15T12:58:52;20.90;98.90
59208;DHT22;44977;53.132;6.408;2022-07-15T13:03:54;20.80;99.90
59208;DHT22;44977;53.132;6.408;2022-07-15T13:08:54;20.60;99.90
59208;DHT22;44977;53.132;6.408;2022-07-15T13:13:55;20.40;99.90
59208;DHT22;44977;53.132;6.408;2022-07-15T13:18:56;20.30;99.90
59208;DHT22;44977;53.132;6.408;2022-07-15T13:23:56;20.20;99.90
59208;DHT22;44977;53.132;6.408;2022-07-15T13:28:57;20.10;99.90
59208;DHT22;44977;53.132;6.408;2022-07-15T13:33:58;19.90;99.90
59208;DHT22;44977;53.132;6.408;2022-07-15T13:38:58;19.80;99.90
59208;DHT22;44977;53.132;6.408;2022-07-15T13:43:59;19.80;99.90
59208;DHT22;44977;53.132;6.408;2022-07-15T13:49:00;19.80;99.90
59208;DHT22;44977;53.132;6.408;2022-07-15T13:54:00;19.90;99.90
59208;DHT22;44977;53.132;6.408;2022-07-15T13:59:02;20.00;99.90
59208;DHT22;44977;53.132;6.408;2022-07-15T14:04:03;20.00;99.90
59208;DHT22;44977;53.132;6.408;2022-07-15T14:09:04;20.10;99.90
59208;DHT22;44977;53.132;6.408;2022-07-15T14:14:05;20.30;99.90
59208;DHT22;44977;53.132;6.408;2022-07-15T14:19:05;20.40;99.90
59208;DHT22;44977;53.132;6.408;2022-07-15T14:24:06;20.50;99.90
59208;DHT22;44977;53.132;6.408;2022-07-15T14:29:07;20.60;99.90
59208;DHT22;44977;53.132;6.408;2022-07-15T14:34:08;20.60;99.90
59208;DHT22;44977;53.132;6.408;2022-07-15T14:39:09;20.70;99.90
59208;DHT22;44977;53.132;6.408;2022-07-15T14:44:10;20.60;99.90
59208;DHT22;44977;53.132;6.408;2022-07-15T14:49:12;20.60;99.90
59208;DHT22;44977;53.132;6.408;2022-07-15T14:54:13;20.50;99.90
59208;DHT22;44977;53.132;6.408;2022-07-15T14:59:14;20.50;99.90
59208;DHT22;44977;53.132;6.408;2022-07-15T15:04:15;20.50;99.90
59208;DHT22;44977;53.132;6.408;2022-07-15T15:09:16;20.60;99.90
59208;DHT22;44977;53.132;6.408;2022-07-15T15:14:17;20.60;99.90
59208;DHT22;44977;53.132;6.408;2022-07-15T15:19:17;20.50;99.90
59208;DHT22;44977;53.132;6.408;2022-07-15T15:24:18;20.50;99.90
59208;DHT22;44977;53.132;6.408;2022-07-15T15:29:20;20.60;99.90
59208;DHT22;44977;53.132;6.408;2022-07-15T15:34:20;20.70;99.90
59208;DHT22;44977;53.132;6.408;2022-07-15T15:39:21;20.90;99.90
59208;DHT22;44977;53.132;6.408;2022-07-15T15:44:22;20.90;99.90
59208;DHT22;44977;53.132;6.408;2022-07-15T15:49:23;20.90;99.90
59208;DHT22;44977;53.132;6.408;2022-07-15T15:54:23;20.90;99.90
59208;DHT22;44977;53.132;6.408;2022-07-15T15:59:25;20.80;99.90
59208;DHT22;44977;53.132;6.408;2022-07-15T16:04:26;20.80;99.90
59208;DHT22;44977;53.132;6.408;2022-07-15T16:09:27;20.70;99.90
59208;DHT22;44977;53.132;6.408;2022-07-15T16:14:28;20.60;99.90
59208;DHT22;44977;53.132;6.408;2022-07-15T16:19:28;20.60;99.90
59208;DHT22;44977;53.132;6.408;2022-07-15T16:24:29;20.50;99.90
59208;DHT22;44977;53.132;6.408;2022-07-15T16:29:30;20.50;99.90
59208;DHT22;44977;53.132;6.408;2022-07-15T16:34:30;20.40;99.90
59208;DHT22;44977;53.132;6.408;2022-07-15T16:39:31;20.30;99.90
59208;DHT22;44977;53.132;6.408;2022-07-15T16:44:32;20.30;99.90
59208;DHT22;44977;53.132;6.408;2022-07-15T16:49:33;20.20;99.90
59208;DHT22;44977;53.132;6.408;2022-07-15T16:54:33;20.10;99.90
59208;DHT22;44977;53.132;6.408;2022-07-15T16:59:34;20.10;99.90
59208;DHT22;44977;53.132;6.408;2022-07-15T17:04:35;20.00;99.90
59208;DHT22;44977;53.132;6.408;2022-07-15T17:09:37;19.90;99.90
59208;DHT22;44977;53.132;6.408;2022-07-15T17:14:38;19.90;99.90
59208;DHT22;44977;53.132;6.408;2022-07-15T17:19:39;19.90;99.90
59208;DHT22;44977;53.132;6.408;2022-07-15T17:24:39;19.90;99.90
59208;DHT22;44977;53.132;6.408;2022-07-15T17:29:40;19.80;99.90
59208;DHT22;44977;53.132;6.408;2022-07-15T17:34:43;19.70;99.90
59208;DHT22;44977;53.132;6.408;2022-07-15T17:39:43;19.70;99.90
59208;DHT22;44977;53.132;6.408;2022-07-15T17:44:44;19.70;99.90
59208;DHT22;44977;53.132;6.408;2022-07-15T17:49:45;19.60;99.90
59208;DHT22;44977;53.132;6.408;2022-07-15T17:54:45;19.60;99.90
59208;DHT22;44977;53.132;6.408;2022-07-15T17:59:46;19.50;99.90
59208;DHT22;44977;53.132;6.408;2022-07-15T18:04:48;19.50;99.90
59208;DHT22;44977;53.132;6.408;2022-07-15T18:09:48;19.40;99.90
59208;DHT22;44977;53.132;6.408;2022-07-15T18:14:49;19.40;99.90
59208;DHT22;44977;53.132;6.408;2022-07-15T18:19:50;19.40;99.90
59208;DHT22;44977;53.132;6.408;2022-07-15T18:24:50;19.30;99.90
59208;DHT22;44977;53.132;6.408;2022-07-15T18:29:52;19.20;99.90
59208;DHT22;44977;53.132;6.408;2022-07-15T18:34:53;19.30;99.90
59208;DHT22;44977;53.132;6.408;2022-07-15T18:39:54;19.20;99.90
59208;DHT22;44977;53.132;6.408;2022-07-15T18:44:54;19.00;99.90
59208;DHT22;44977;53.132;6.408;2022-07-15T18:49:55;18.90;99.90
59208;DHT22;44977;53.132;6.408;2022-07-15T18:54:56;18.80;99.90
59208;DHT22;44977;53.132;6.408;2022-07-15T18:59:56;18.70;99.90
59208;DHT22;44977;53.132;6.408;2022-07-15T19:04:57;18.70;99.90
59208;DHT22;44977;53.132;6.408;2022-07-15T19:09:58;18.70;99.90
59208;DHT22;44977;53.132;6.408;2022-07-15T19:14:59;18.60;99.90
59208;DHT22;44977;53.132;6.408;2022-07-15T19:19:59;18.60;99.90
59208;DHT22;44977;53.132;6.408;2022-07-15T19:25:01;18.50;99.90
59208;DHT22;44977;53.132;6.408;2022-07-15T19:30:03;18.50;99.90
59208;DHT22;44977;53.132;6.408;2022-07-15T19:35:04;18.40;99.90
59208;DHT22;44977;53.132;6.408;2022-07-15T19:40:08;18.40;99.90
59208;DHT22;44977;53.132;6.408;2022-07-15T19:45:09;18.30;99.90
59208;DHT22;44977;53.132;6.408;2022-07-15T19:50:12;18.20;99.90
59208;DHT22;44977;53.132;6.408;2022-07-15T19:55:13;18.20;99.90
59208;DHT22;44977;53.132;6.408;2022-07-15T20:00:14;18.10;99.90
59208;DHT22;44977;53.132;6.408;2022-07-15T20:05:19;18.10;99.90
59208;DHT22;44977;53.132;6.408;2022-07-15T20:10:21;18.10;99.90
59208;DHT22;44977;53.132;6.408;2022-07-15T20:15:22;18.00;99.90
59208;DHT22;44977;53.132;6.408;2022-07-15T20:20:25;17.90;99.90
59208;DHT22;44977;53.132;6.408;2022-07-15T20:25:27;17.70;99.90
59208;DHT22;44977;53.132;6.408;2022-07-15T20:30:28;17.60;99.90
59208;DHT22;44977;53.132;6.408;2022-07-15T20:35:29;17.50;99.90
59208;DHT22;44977;53.132;6.408;2022-07-15T20:40:29;17.50;99.90
59208;DHT22;44977;53.132;6.408;2022-07-15T20:45:30;17.40;99.90
59208;DHT22;44977;53.132;6.408;2022-07-15T20:50:31;17.40;99.90
59208;DHT22;44977;53.132;6.408;2022-07-15T20:55:33;17.30;99.90
59208;DHT22;44977;53.132;6.408;2022-07-15T21:00:34;17.30;99.90
59208;DHT22;44977;53.132;6.408;2022-07-15T21:05:35;17.20;99.90
59208;DHT22;44977;53.132;6.408;2022-07-15T21:10:36;17.20;99.90
59208;DHT22;44977;53.132;6.408;2022-07-15T21:15:37;17.20;99.90
59208;DHT22;44977;53.132;6.408;2022-07-15T21:20:38;17.20;99.90
59208;DHT22;44977;53.132;6.408;2022-07-15T21:25:38;17.10;99.90
59208;DHT22;44977;53.132;6.408;2022-07-15T21:30:58;17.00;99.90
59208;DHT22;44977;53.132;6.408;2022-07-15T21:35:59;17.10;99.90
59208;DHT22;44977;53.132;6.408;2022-07-15T21:40:59;17.10;99.90
59208;DHT22;44977;53.132;6.408;2022-07-15T21:46:00;17.00;99.90
59208;DHT22;44977;53.132;6.408;2022-07-15T21:51:01;17.00;99.90
59208;DHT22;44977;53.132;6.408;2022-07-15T21:56:01;17.00;99.90
59208;DHT22;44977;53.132;6.408;2022-07-15T22:01:02;16.90;99.90
59208;DHT22;44977;53.132;6.408;2022-07-15T22:06:03;16.80;99.90
59208;DHT22;44977;53.132;6.408;2022-07-15T22:11:09;16.80;99.90
59208;DHT22;44977;53.132;6.408;2022-07-15T22:16:09;16.70;99.90
59208;DHT22;44977;53.132;6.408;2022-07-15T22:21:11;16.70;99.90
59208;DHT22;44977;53.132;6.408;2022-07-15T22:26:11;16.70;99.90
59208;DHT22;44977;53.132;6.408;2022-07-15T22:31:12;16.60;99.90
59208;DHT22;44977;53.132;6.408;2022-07-15T22:36:13;16.60;99.90
59208;DHT22;44977;53.132;6.408;2022-07-15T22:41:14;16.60;99.90
59208;DHT22;44977;53.132;6.408;2022-07-15T22:46:14;16.60;99.90
59208;DHT22;44977;53.132;6.408;2022-07-15T22:51:15;16.60;99.90
59208;DHT22;44977;53.132;6.408;2022-07-15T22:56:16;16.60;99.90
59208;DHT22;44977;53.132;6.408;2022-07-15T23:01:17;16.50;99.90
59208;DHT22;44977;53.132;6.408;2022-07-15T23:06:18;16.50;99.90
59208;DHT22;44977;53.132;6.408;2022-07-15T23:11:18;16.50;99.90
59208;DHT22;44977;53.132;6.408;2022-07-15T23:16:19;16.40;99.90
59208;DHT22;44977;53.132;6.408;2022-07-15T23:21:20;16.50;99.90
59208;DHT22;44977;53.132;6.408;2022-07-15T23:26:21;16.40;99.90
59208;DHT22;44977;53.132;6.408;2022-07-15T23:31:21;16.40;99.90
59208;DHT22;44977;53.132;6.408;2022-07-15T23:36:22;16.40;99.90
59208;DHT22;44977;53.132;6.408;2022-07-15T23:41:23;16.40;99.90
59208;DHT22;44977;53.132;6.408;2022-07-15T23:46:23;16.30;99.90
59208;DHT22;44977;53.132;6.408;2022-07-15T23:51:24;16.20;99.90
59208;DHT22;44977;53.132;6.408;2022-07-15T23:56:25;16.30;99.90
